• Join FlightAware (Why Join?)
  • Login
  • US Flag 
08:26AM EST


 

Airport Tracker/Info


-or-


 

Live Flight TrackerFlight Track Log ✈ TYR843 ✈ 20-Oct-2013 ✈ LOWW / VIE - LATI / TIA

Flight Track Log - Related Links

Times and Time Zones

All times are in EDT time to prevent confusion due to time zone crossing. See the TYR843 flight status page for this flight to view local times or setup timezone preferences in your user account.

Time Position Orientation Groundspeed Altitude Reporting Facility
EDT Latitude Longitude Course Direction KTS MPH feet Rate Location/Type
05:29PM 47.7937 16.7375 160° South  Level Estimated
05:30PM 47.6881 16.7930 161° South  Level Estimated
05:31PM 47.5825 16.8482 161° South  Level Estimated
05:32PM 47.4768 16.9032 161° South  Level Estimated
05:33PM 47.3711 16.9580 161° South  Level Estimated
05:34PM 47.2654 17.0126 161° South  Level Estimated
05:35PM 47.1597 17.0670 161° South  Level Estimated
05:36PM 47.0540 17.1211 161° South  Level Estimated
05:37PM 46.9482 17.1751 161° South  Level Estimated
05:38PM 46.8424 17.2288 161° South  Level Estimated
05:39PM 46.7365 17.2823 161° South  Level Estimated
05:40PM 46.6307 17.3356 161° South  Level Estimated
05:41PM 46.5248 17.3887 161° South  Level Estimated
05:42PM 46.4189 17.4416 161° South  Level Estimated
05:43PM 46.3130 17.4943 161° South  Level Estimated
05:44PM 46.2070 17.5467 161° South  Level Estimated
05:45PM 46.1011 17.5990 161° South  Level Estimated
05:46PM 45.9951 17.6511 161° South  Level Estimated
05:47PM 45.8890 17.7030 161° South  Level Estimated
05:48PM 45.7830 17.7547 161° South  Level Estimated
05:49PM 45.6769 17.8061 161° South  Level Estimated
05:50PM 45.5709 17.8574 161° South  Level Estimated
05:51PM 45.4647 17.9085 161° South  Level Estimated
05:52PM 45.3586 17.9594 161° South  Level Estimated
05:53PM 45.2524 18.0101 161° South  Level Estimated
05:54PM 45.1463 18.0606 161° South  Level Estimated
05:55PM 45.0401 18.1110 161° South  Level Estimated
05:56PM 44.9338 18.1611 162° South  Level Estimated
05:57PM 44.8276 18.2111 162° South  Level Estimated
05:58PM 44.7213 18.2609 162° South  Level Estimated
05:59PM 44.6150 18.3105 162° South  Level Estimated
06:00PM 44.5087 18.3599 162° South  Level Estimated
06:01PM 44.4024 18.4091 162° South  Level Estimated
06:02PM 44.2960 18.4582 162° South  Level Estimated
06:03PM 44.1897 18.5071 162° South  Level Estimated
06:04PM 44.0833 18.5558 162° South  Level Estimated
06:05PM 43.9768 18.6043 162° South  Level Estimated
06:06PM 43.8704 18.6527 162° South  Level Estimated
06:07PM 43.7640 18.7008 162° South  Level Estimated
06:08PM 43.6575 18.7488 162° South  Level Estimated
06:09PM 43.5510 18.7967 162° South  Level Estimated
06:10PM 43.4445 18.8444 162° South  Level Estimated
06:11PM 43.3379 18.8919 162° South  Level Estimated
06:12PM 43.2313 18.9392 162° South  Level Estimated
06:13PM 43.1248 18.9864 162° South  Level Estimated
06:14PM 43.0182 19.0334 162° South  Level Estimated
06:15PM 42.9116 19.0802 162° South  Level Estimated
06:16PM 42.8049 19.1269 162° South  Level Estimated
06:17PM 42.6983 19.1734 162° South  Level Estimated
06:18PM 42.5916 19.2198 162° South  Level Estimated
06:19PM 42.4849 19.2660 162° South  Level Estimated
06:20PM 42.3782 19.3121 162° South  Level Estimated
06:21PM 42.2715 19.3580 162° South  Level Estimated
06:22PM 42.1647 19.4037 162° South  Level Estimated
06:23PM 42.0580 19.4493 162° South  Level Estimated
06:24PM 41.9512 19.4947 162° South  Level Estimated
06:25PM 41.8444 19.5400 162° South  Level Estimated
06:26PM 41.7376 19.5851 163° South  Level Estimated
06:27PM 41.6308 19.6301 163° South  Level Estimated
06:28PM 41.5239 19.6749 163° South  Level Estimated
06:29PM 41.4170 19.7196 163° South  Level Estimated
06:30PM 41.4147 19.7206 163° South  Level Estimated
06:31PM 41.4147 19.7206 21° North  Level Estimated
06:32PM 41.4147 19.7206 21° North  Level Estimated
06:33PM 41.4147 19.7206 21° North  Level Estimated
06:34PM 41.4147 19.7206 21° North  Level Estimated
06:35PM 41.4147 19.7206 21° North  Level Estimated
06:36PM 41.4147 19.7206 21° North  Level Estimated
06:37PM 41.4147 19.7206 21° North  Level Estimated
06:38PM 41.4147 19.7206 21° North  Level Estimated
06:39PM 41.4147 19.7206 21° North  Level Estimated
06:40PM 41.4147 19.7206 21° North  Level Estimated